Time;durP1;ratioP1;P1;durP2;ratioP2;P2;SDS_P1;SDS_P2;PMS_P1;PMS_P2;Temp;Humidity;BMP_temperature;BMP_pressure;BME280_temperature;BME280_humidity;BME280_pressure;Samples;Min_cycle;Max_cycle;Signal;HPM_P1;HPM_P2
2023/08/25 00:00:51;;;;;;;10.27;6.90;;;;;;;21.30;80.33;100820.97;5072258;28;20439;-65
2023/08/25 00:03:16;;;;;;;9.02;7.00;;;;;;;21.23;80.33;100832.75;5066312;28;20555;-65
2023/08/25 00:05:41;;;;;;;9.80;7.90;;;;;;;21.29;80.25;100833.41;5067223;28;20801;-65
2023/08/25 00:08:07;;;;;;;9.40;7.93;;;;;;;21.27;80.19;100838.56;5052048;28;20047;-65
2023/08/25 00:10:33;;;;;;;10.88;7.70;;;;;;;21.21;80.17;100839.84;5052039;28;20065;-65
2023/08/25 00:12:58;;;;;;;10.82;7.68;;;;;;;21.24;80.05;100840.03;5051316;28;20064;-65
2023/08/25 00:15:24;;;;;;;10.02;8.10;;;;;;;21.19;80.15;100848.66;5051831;28;20031;-64
2023/08/25 00:17:50;;;;;;;8.90;7.90;;;;;;;21.25;79.75;100838.88;5051260;28;20135;-65
2023/08/25 00:20:16;;;;;;;9.05;7.57;;;;;;;21.21;80.05;100846.31;5052055;28;20046;-65
2023/08/25 00:22:41;;;;;;;12.15;8.52;;;;;;;21.20;79.80;100836.22;5052605;28;20021;-65
2023/08/25 00:25:08;;;;;;;10.57;8.43;;;;;;;21.16;79.87;100849.31;5070159;28;20032;-65
2023/08/25 00:27:33;;;;;;;13.65;7.80;;;;;;;21.17;79.52;100845.31;5072106;28;20407;-65
2023/08/25 00:29:58;;;;;;;10.25;8.70;;;;;;;21.15;79.71;100844.00;5071309;28;20017;-65
2023/08/25 00:32:24;;;;;;;9.43;8.52;;;;;;;21.13;79.71;100843.47;5071242;28;20435;-65
2023/08/25 00:34:49;;;;;;;10.15;7.97;;;;;;;21.14;79.34;100845.97;5071886;28;20029;-65
2023/08/25 00:37:14;;;;;;;10.68;8.55;;;;;;;21.08;79.80;100847.28;5071665;28;20075;-65
2023/08/25 00:39:40;;;;;;;10.45;8.38;;;;;;;21.12;79.58;100850.28;5068215;28;20052;-65
2023/08/25 00:42:05;;;;;;;10.57;9.43;;;;;;;21.10;79.68;100850.59;5065900;28;20438;-65
2023/08/25 00:44:30;;;;;;;10.57;9.27;;;;;;;21.09;79.53;100851.75;5071845;28;20029;-65
2023/08/25 00:46:56;;;;;;;10.77;9.10;;;;;;;21.06;79.69;100850.44;5071129;28;20040;-65
2023/08/25 00:49:22;;;;;;;12.27;9.02;;;;;;;21.00;79.55;100853.72;5071654;28;20021;-65
2023/08/25 00:51:48;;;;;;;11.10;9.32;;;;;;;20.98;79.29;100847.53;5071690;28;20020;-65
2023/08/25 00:54:14;;;;;;;9.13;8.32;;;;;;;20.96;79.51;100847.88;5071180;28;20025;-65
2023/08/25 00:56:39;;;;;;;10.20;9.20;;;;;;;21.00;79.61;100843.25;5071714;28;20429;-65
2023/08/25 00:59:05;;;;;;;10.13;9.23;;;;;;;20.97;79.42;100837.41;5054432;28;20033;-65
2023/08/25 01:01:31;;;;;;;11.52;9.38;;;;;;;20.93;79.65;100836.41;5050964;28;20061;-65
2023/08/25 01:03:56;;;;;;;11.52;9.75;;;;;;;20.95;79.82;100839.75;5051678;28;20074;-65
2023/08/25 01:06:22;;;;;;;11.73;9.80;;;;;;;20.92;80.17;100843.19;5051654;28;20044;-65
2023/08/25 01:08:47;;;;;;;10.68;9.55;;;;;;;20.94;80.22;100843.69;5051081;28;20035;-65
2023/08/25 01:11:26;;;;;;;11.27;10.07;;;;;;;20.90;80.37;100843.50;5051908;28;20086;-65
2023/08/25 01:14:30;;;;;;;10.90;9.30;;;;;;;20.97;79.48;100843.88;5051770;28;20043;-65
2023/08/25 01:17:04;;;;;;;11.55;9.63;;;;;;;20.91;79.98;100839.56;5058215;28;20075;-65
2023/08/25 01:19:48;;;;;;;11.30;10.05;;;;;;;20.90;79.98;100834.22;5051870;28;20403;-65
2023/08/25 01:22:21;;;;;;;12.15;9.68;;;;;;;20.89;80.16;100832.56;5051119;28;20039;-65
2023/08/25 01:24:52;;;;;;;10.48;9.38;;;;;;;20.84;79.58;100827.88;5051603;28;20025;-65
2023/08/25 01:27:18;;;;;;;10.43;9.25;;;;;;;20.87;79.47;100830.06;5051644;28;20100;-65
2023/08/25 01:29:46;;;;;;;9.88;8.98;;;;;;;20.85;79.19;100826.72;5051009;28;20488;-65
2023/08/25 01:32:11;;;;;;;11.48;10.30;;;;;;;20.80;79.61;100833.34;5051880;28;20021;-65
2023/08/25 01:34:37;;;;;;;10.48;9.38;;;;;;;20.79;79.38;100828.88;5062593;28;20450;-65
2023/08/25 01:37:05;;;;;;;11.60;9.48;;;;;;;;;;5070681;28;20028;-65
2023/08/25 01:39:33;;;;;;;10.63;9.35;;;;;;;20.77;79.93;100819.88;5071497;28;20025;-65
2023/08/25 01:42:02;;;;;;;10.82;8.90;;;;;;;20.81;79.76;100823.72;5074427;28;20027;-65
2023/08/25 01:44:29;;;;;;;11.48;10.38;;;;;;;20.74;80.21;100820.50;5074262;28;20373;-65
2023/08/25 01:47:01;;;;;;;11.73;10.63;;;;;;;20.74;80.33;100825.31;5074943;28;20064;-65
2023/08/25 01:49:28;;;;;;;11.48;10.38;;;;;;;20.71;80.47;100821.19;5070866;28;20020;-65
2023/08/25 01:51:54;;;;;;;11.82;10.60;;;;;;;20.73;80.40;100818.84;5073826;28;20373;-66
2023/08/25 01:54:20;;;;;;;12.13;10.90;;;;;;;20.72;80.60;100814.38;5061346;28;20074;-65
2023/08/25 01:56:45;;;;;;;13.55;10.77;;;;;;;20.73;80.59;100815.22;5054159;28;20120;-65
2023/08/25 01:59:10;;;;;;;13.45;12.02;;;;;;;20.73;80.75;100813.22;5054705;28;20032;-65
2023/08/25 02:01:35;;;;;;;13.07;11.88;;;;;;;20.73;80.74;100807.56;5054838;28;20017;-65
2023/08/25 02:04:01;;;;;;;12.77;11.50;;;;;;;20.75;80.98;100810.91;5053592;28;20121;-65
2023/08/25 02:06:26;;;;;;;15.02;11.80;;;;;;;20.80;80.92;100805.13;5054185;28;20032;-65
2023/08/25 02:08:52;;;;;;;13.48;11.93;;;;;;;20.80;80.81;100809.94;5053233;28;20028;-65
2023/08/25 02:11:17;;;;;;;14.82;12.32;;;;;;;20.79;80.89;100811.94;5073254;28;20017;-65
2023/08/25 02:13:42;;;;;;;14.02;12.52;;;;;;;20.81;80.97;100805.97;5074359;28;20025;-65
2023/08/25 02:16:08;;;;;;;13.80;12.50;;;;;;;20.75;81.27;100802.47;5073903;28;20065;-65
2023/08/25 02:18:33;;;;;;;13.55;12.25;;;;;;;20.75;81.09;100791.19;5073238;28;20040;-65
2023/08/25 02:20:58;;;;;;;12.95;11.73;;;;;;;20.80;81.00;100796.66;5073991;28;20095;-65
2023/08/25 02:23:24;;;;;;;13.38;11.98;;;;;;;20.75;81.11;100796.81;5073744;28;20111;-64
2023/08/25 02:25:50;;;;;;;13.40;12.10;;;;;;;20.74;81.20;100795.13;5072935;28;20409;-64
2023/08/25 02:28:16;;;;;;;12.65;11.55;;;;;;;20.73;81.23;100795.47;5062864;28;20052;-64
2023/08/25 02:30:41;;;;;;;12.80;11.63;;;;;;;20.73;81.00;100792.66;5073821;28;20059;-64
2023/08/25 02:33:06;;;;;;;13.70;12.30;;;;;;;20.73;81.22;100795.47;5073075;28;20027;-64
2023/08/25 02:35:32;;;;;;;13.95;12.55;;;;;;;20.73;81.15;100784.19;5073576;28;20021;-65
2023/08/25 02:38:06;;;;;;;13.60;12.30;;;;;;;20.69;81.61;100780.34;5073430;28;20055;-64
2023/08/25 02:40:33;;;;;;;16.35;12.40;;;;;;;20.73;81.24;100767.25;5072868;28;20497;-65
2023/08/25 02:43:00;;;;;;;14.07;12.68;;;;;;;20.71;81.44;100769.56;5073789;28;20064;-64
2023/08/25 02:45:26;;;;;;;15.40;13.90;;;;;;;20.70;81.63;100767.91;5054834;28;20606;-66
2023/08/25 02:47:53;;;;;;;16.60;14.95;;;;;;;20.64;81.77;100764.41;5052611;28;20029;-66
2023/08/25 02:50:19;;;;;;;16.25;14.57;;;;;;;20.68;81.90;100762.59;5053342;28;20023;-66
2023/08/25 02:52:44;;;;;;;15.60;14.07;;;;;;;20.72;81.92;100757.97;5052484;28;20033;-66
2023/08/25 02:55:11;;;;;;;18.55;15.38;;;;;;;20.62;82.17;100758.22;5053254;28;20024;-67
2023/08/25 02:57:37;;;;;;;17.67;15.95;;;;;;;20.67;82.21;100760.06;5053263;28;20466;-66
2023/08/25 03:00:04;;;;;;;17.95;16.17;;;;;;;20.65;82.21;100745.47;5051119;28;20025;-66
2023/08/25 03:02:29;;;;;;;17.63;15.73;;;;;;;20.73;81.92;100750.34;5056515;28;20025;-67
2023/08/25 03:04:55;;;;;;;17.77;16.02;;;;;;;20.71;82.04;100742.22;5053056;28;20353;-67
2023/08/25 03:07:20;;;;;;;19.13;17.17;;;;;;;20.70;82.14;100740.53;5052290;28;20031;-66
2023/08/25 03:09:45;;;;;;;17.73;15.70;;;;;;;20.75;82.06;100736.72;5053073;28;20041;-66
2023/08/25 03:12:11;;;;;;;17.95;16.25;;;;;;;20.70;82.28;100729.25;5052629;28;20025;-66
2023/08/25 03:14:36;;;;;;;21.90;17.30;;;;;;;20.68;82.17;100728.75;5051941;28;20119;-66
2023/08/25 03:17:01;;;;;;;19.67;17.50;;;;;;;20.70;82.01;100723.59;5052398;28;20073;-64
2023/08/25 03:19:27;;;;;;;19.70;17.63;;;;;;;20.64;82.54;100730.56;5066316;28;20476;-66
2023/08/25 03:21:52;;;;;;;20.10;18.10;;;;;;;20.64;82.77;100724.91;5071724;28;20024;-66
2023/08/25 03:24:17;;;;;;;22.20;19.33;;;;;;;20.65;82.61;100717.28;5072345;28;20036;-65
2023/08/25 03:26:43;;;;;;;19.90;17.83;;;;;;;20.71;82.36;100719.66;5072237;28;20029;-66
2023/08/25 03:29:08;;;;;;;20.15;18.05;;;;;;;20.66;83.02;100722.59;5071818;28;20121;-65
2023/08/25 03:31:35;;;;;;;21.02;18.85;;;;;;;20.63;83.19;100711.13;5072436;28;20033;-65
2023/08/25 03:34:00;;;;;;;20.75;18.75;;;;;;;20.64;83.32;100713.63;5072248;28;20016;-66
2023/08/25 03:36:25;;;;;;;20.60;18.40;;;;;;;20.66;82.94;100711.31;5067292;28;20031;-65
2023/08/25 03:38:51;;;;;;;20.50;18.50;;;;;;;20.62;83.27;100706.66;5072263;28;20035;-66
2023/08/25 03:41:17;;;;;;;20.38;18.45;;;;;;;20.64;83.29;100702.34;5071985;28;20047;-66
2023/08/25 03:43:42;;;;;;;22.75;17.55;;;;;;;20.68;82.72;100697.72;5071330;28;20476;-66
2023/08/25 03:46:07;;;;;;;20.48;18.38;;;;;;;20.67;83.23;100687.59;5072147;28;20025;-66
2023/08/25 03:48:32;;;;;;;20.80;18.77;;;;;;;20.67;83.21;100690.44;5071991;28;20384;-66
2023/08/25 03:50:58;;;;;;;21.45;19.40;;;;;;;20.67;83.28;100695.22;5071086;28;20455;-66
2023/08/25 03:53:23;;;;;;;21.15;18.98;;;;;;;20.65;83.37;100692.72;5054645;28;20035;-65
2023/08/25 03:55:48;;;;;;;20.95;19.05;;;;;;;20.66;83.33;100691.56;5071917;28;20020;-65
2023/08/25 03:58:14;;;;;;;21.77;19.52;;;;;;;20.64;83.53;100699.53;5071272;28;20028;-65
2023/08/25 04:00:39;;;;;;;22.23;19.92;;;;;;;20.65;83.49;100697.53;5071958;28;20028;-66
2023/08/25 04:03:06;;;;;;;23.00;20.13;;;;;;;20.66;83.63;100693.56;5070618;28;20103;-65
2023/08/25 04:05:32;;;;;;;22.48;20.17;;;;;;;20.63;83.54;100686.56;5054653;28;20056;-66
2023/08/25 04:07:57;;;;;;;22.45;18.50;;;;;;;20.66;83.24;100682.28;5052095;28;20072;-65
2023/08/25 04:10:23;;;;;;;22.42;20.02;;;;;;;20.62;83.48;100686.91;5051278;28;20501;-65
2023/08/25 04:12:49;;;;;;;21.98;19.73;;;;;;;20.60;83.66;100684.41;5051794;28;20029;-65
2023/08/25 04:15:14;;;;;;;21.65;19.55;;;;;;;20.58;83.66;100687.53;5051741;28;20483;-65
2023/08/25 04:17:39;;;;;;;22.60;20.20;;;;;;;20.63;83.57;100688.56;5050887;28;20207;-65
2023/08/25 04:20:05;;;;;;;21.80;19.70;;;;;;;20.62;83.83;100684.91;5054027;28;20102;-66
2023/08/25 04:22:31;;;;;;;20.92;18.92;;;;;;;20.63;83.68;100682.91;5069826;28;20025;-65
2023/08/25 04:24:56;;;;;;;22.98;19.40;;;;;;;20.63;83.74;100688.56;5070821;28;20361;-65
2023/08/25 04:27:21;;;;;;;21.23;19.13;;;;;;;20.61;83.72;100683.25;5071749;28;20110;-65
2023/08/25 04:29:47;;;;;;;21.80;19.80;;;;;;;20.59;83.59;100669.50;5071733;28;20025;-65
2023/08/25 04:32:12;;;;;;;21.60;19.58;;;;;;;20.56;83.65;100675.78;5067391;28;20016;-65
2023/08/25 04:34:37;;;;;;;22.17;20.05;;;;;;;20.58;83.85;100681.91;5071470;28;20436;-66
2023/08/25 04:37:03;;;;;;;22.05;19.77;;;;;;;20.57;83.87;100682.25;5071630;28;20028;-65
2023/08/25 04:39:28;;;;;;;22.35;20.17;;;;;;;20.57;83.93;100683.06;5070820;28;20033;-65
2023/08/25 04:41:54;;;;;;;21.45;19.25;;;;;;;20.59;83.78;100688.38;5071230;28;20052;-66
2023/08/25 04:44:20;;;;;;;20.27;18.50;;;;;;;20.58;83.84;100695.19;5071611;28;20029;-65
2023/08/25 04:46:45;;;;;;;22.38;20.27;;;;;;;20.56;84.05;100701.16;5070685;28;20529;-66
2023/08/25 04:49:10;;;;;;;21.75;19.55;;;;;;;20.58;84.02;100696.00;5067944;28;20016;-66
2023/08/25 04:51:36;;;;;;;21.60;19.42;;;;;;;20.61;84.00;100688.06;5067673;28;20032;-65
2023/08/25 04:54:01;;;;;;;22.38;20.00;;;;;;;20.58;83.85;100681.91;5070638;28;20028;-66
2023/08/25 04:56:26;;;;;;;22.70;20.45;;;;;;;20.56;84.09;100687.06;5071571;28;20085;-65
2023/08/25 04:58:52;;;;;;;22.67;20.40;;;;;;;20.56;84.32;100672.97;5071362;28;20040;-66
2023/08/25 05:01:17;;;;;;;22.77;20.60;;;;;;;20.62;83.70;100675.63;5065710;28;20020;-65
2023/08/25 05:03:44;;;;;;;21.98;19.92;;;;;;;20.57;84.08;100668.16;5071307;28;20029;-65
2023/08/25 05:06:10;;;;;;;21.40;19.20;;;;;;;20.54;84.06;100661.16;5071178;28;20043;-66
2023/08/25 05:08:36;;;;;;;21.63;19.33;;;;;;;20.55;83.92;100659.16;5071076;28;20037;-65
2023/08/25 05:11:01;;;;;;;21.00;19.13;;;;;;;20.58;83.86;100652.88;5071388;28;20016;-66
2023/08/25 05:13:28;;;;;;;22.45;20.02;;;;;;;20.47;84.31;100651.47;5070321;28;20380;-66
2023/08/25 05:15:53;;;;;;;21.23;19.38;;;;;;;20.47;84.16;100669.22;5072086;28;20045;-65
2023/08/25 05:18:19;;;;;;;20.50;18.40;;;;;;;20.50;84.18;100662.97;5070594;28;20548;-66
2023/08/25 05:20:44;;;;;;;20.95;18.58;;;;;;;20.49;84.26;100654.84;5074244;28;20075;-65
2023/08/25 05:23:10;;;;;;;20.38;18.30;;;;;;;20.51;83.90;100658.16;5074549;28;20032;-66
2023/08/25 05:25:35;;;;;;;20.23;18.38;;;;;;;20.48;84.37;100664.44;5074633;28;20111;-66
2023/08/25 05:28:00;;;;;;;19.98;18.10;;;;;;;20.50;84.20;100662.97;5074065;28;20052;-65
2023/08/25 05:30:26;;;;;;;19.75;17.98;;;;;;;20.52;84.10;100666.31;5074771;28;20112;-66
2023/08/25 05:32:51;;;;;;;19.30;17.42;;;;;;;20.49;84.45;100683.03;5074569;28;20103;-66
2023/08/25 05:35:16;;;;;;;19.50;16.88;;;;;;;20.50;84.40;100687.50;5070316;28;20024;-66
2023/08/25 05:37:42;;;;;;;17.70;15.98;;;;;;;20.52;84.60;100665.47;5074486;28;20033;-65
2023/08/25 05:40:07;;;;;;;18.27;16.20;;;;;;;20.53;84.94;100658.66;5074335;28;20353;-65
2023/08/25 05:42:35;;;;;;;18.65;15.90;;;;;;;20.56;85.07;100658.03;5073817;28;20053;-66
2023/08/25 05:45:00;;;;;;;16.73;15.15;;;;;;;20.62;84.87;100651.06;5074229;28;20566;-65
2023/08/25 05:47:26;;;;;;;16.05;14.55;;;;;;;20.61;85.05;100655.06;5074352;28;20040;-65
2023/08/25 05:49:51;;;;;;;15.38;13.88;;;;;;;20.62;85.22;100653.06;5073631;28;20056;-66
2023/08/25 05:52:16;;;;;;;15.43;13.50;;;;;;;20.64;84.79;100645.13;5068761;28;20028;-65
2023/08/25 05:54:42;;;;;;;17.27;12.63;;;;;;;20.64;85.01;100639.50;5073310;28;20107;-65
2023/08/25 05:57:08;;;;;;;13.70;12.00;;;;;;;20.61;84.96;100638.13;5073438;28;20381;-65
2023/08/25 05:59:33;;;;;;;13.50;12.05;;;;;;;20.67;84.55;100644.44;5074180;28;20016;-65
2023/08/25 06:01:58;;;;;;;14.48;12.48;;;;;;;20.61;84.97;100652.25;5074108;28;20060;-65
2023/08/25 06:04:24;;;;;;;13.77;11.93;;;;;;;20.58;84.42;100638.78;5073418;28;20427;-65
2023/08/25 06:06:49;;;;;;;14.60;11.68;;;;;;;20.60;84.50;100633.66;5071961;28;20056;-66
2023/08/25 06:09:17;;;;;;;14.52;11.48;;;;;;;20.62;84.83;100627.69;5069460;28;20384;-65
2023/08/25 06:11:43;;;;;;;13.88;12.48;;;;;;;20.56;84.91;100638.28;5072070;28;20032;-65
2023/08/25 06:14:09;;;;;;;14.05;12.60;;;;;;;20.59;84.97;100638.47;5073812;28;20380;-65
2023/08/25 06:16:37;;;;;;;15.38;12.60;;;;;;;20.62;84.76;100639.78;5072991;28;20036;-65
2023/08/25 06:19:02;;;;;;;13.95;12.43;;;;;;;20.60;85.03;100633.66;5073802;28;20585;-65
2023/08/25 06:21:29;;;;;;;17.58;12.82;;;;;;;20.58;85.22;100650.06;5073872;28;20040;-65
2023/08/25 06:23:54;;;;;;;14.68;13.02;;;;;;;20.56;85.67;100655.22;5072939;28;20076;-65
2023/08/25 06:26:19;;;;;;;15.32;11.45;;;;;;;20.56;85.56;100646.75;5065198;28;20021;-65
2023/08/25 06:28:44;;;;;;;12.57;10.07;;;;;;;20.57;84.60;100662.50;5073363;28;20027;-65
2023/08/25 06:31:10;;;;;;;12.25;10.45;;;;;;;20.50;84.98;100664.94;5072400;28;20020;-65
2023/08/25 06:33:35;;;;;;;12.00;10.23;;;;;;;20.51;85.17;100663.78;5073368;28;20357;-65
2023/08/25 06:36:00;;;;;;;11.50;9.48;;;;;;;20.46;84.85;100666.72;5073381;28;20025;-65
2023/08/25 06:38:27;;;;;;;9.93;8.48;;;;;;;20.45;84.38;100656.63;5072601;28;20035;-65
2023/08/25 06:40:53;;;;;;;10.70;8.70;;;;;;;20.38;84.44;100654.25;5073293;28;20393;-65
2023/08/25 06:43:19;;;;;;;15.10;8.05;;;;;;;20.43;84.25;100642.81;5066457;28;20036;-65
2023/08/25 06:45:44;;;;;;;12.68;8.93;;;;;;;20.40;84.64;100637.88;5069474;28;20029;-66
2023/08/25 06:48:09;;;;;;;11.05;8.38;;;;;;;20.42;84.68;100648.81;5053173;28;20051;-65
2023/08/25 06:50:34;;;;;;;12.68;8.88;;;;;;;20.41;84.76;100642.34;5053129;28;20028;-65
2023/08/25 06:53:00;;;;;;;16.67;8.85;;;;;;;20.40;84.85;100642.66;5052368;28;20021;-66
2023/08/25 06:55:25;;;;;;;11.52;8.52;;;;;;;20.43;84.74;100639.19;5053003;28;20079;-65
2023/08/25 06:57:51;;;;;;;9.43;8.38;;;;;;;20.42;84.86;100620.59;5052864;28;20028;-66
2023/08/25 07:00:17;;;;;;;10.48;9.20;;;;;;;20.43;85.18;100589.25;5052316;28;20469;-65
2023/08/25 07:02:44;;;;;;;13.18;11.57;;;;;;;20.46;85.33;100565.25;5054319;28;20064;-65
2023/08/25 07:05:10;;;;;;;12.65;11.07;;;;;;;20.43;85.24;100580.81;5052714;28;20036;-66
2023/08/25 07:07:36;;;;;;;12.10;10.90;;;;;;;20.44;85.32;100595.75;5052073;28;20033;-65
2023/08/25 07:10:02;;;;;;;13.48;12.07;;;;;;;20.42;85.50;100604.53;5052726;28;20484;-66
2023/08/25 07:12:27;;;;;;;13.27;11.77;;;;;;;20.40;85.86;100600.38;5052756;28;20048;-65
2023/08/25 07:14:53;;;;;;;12.95;11.65;;;;;;;20.39;85.44;100581.78;5051956;28;20464;-65
2023/08/25 07:17:18;;;;;;;13.20;11.80;;;;;;;20.41;84.83;100573.84;5052472;28;20075;-65
2023/08/25 07:19:44;;;;;;;14.20;11.70;;;;;;;20.41;84.63;100585.13;5066171;28;20139;-66
2023/08/25 07:22:10;;;;;;;15.68;12.60;;;;;;;20.41;84.90;100624.59;5071628;28;20080;-66
2023/08/25 07:24:35;;;;;;;17.10;12.57;;;;;;;20.37;85.33;100692.06;5072411;28;20071;-65
2023/08/25 07:27:01;;;;;;;14.35;11.65;;;;;;;20.33;85.23;100748.25;5071821;28;20024;-65
2023/08/25 07:29:26;;;;;;;16.48;12.15;;;;;;;20.31;85.67;100739.25;5072275;28;20031;-65
2023/08/25 07:31:52;;;;;;;19.55;12.10;;;;;;;20.32;85.84;100662.03;5072413;28;20115;-65
2023/08/25 07:34:18;;;;;;;14.45;10.77;;;;;;;20.29;85.89;100633.66;5071875;28;20031;-66
2023/08/25 07:36:43;;;;;;;11.63;9.27;;;;;;;20.27;85.44;100647.22;5066061;28;20033;-65
2023/08/25 07:39:08;;;;;;;10.70;9.60;;;;;;;20.26;86.19;100666.13;5071618;28;20025;-65
2023/08/25 07:41:33;;;;;;;11.07;9.20;;;;;;;20.28;85.99;100677.09;5071644;28;20678;-65
2023/08/25 07:43:59;;;;;;;12.98;9.02;;;;;;;20.26;86.21;100677.41;5072476;28;20074;-65
2023/08/25 07:46:24;;;;;;;13.18;9.60;;;;;;;20.25;86.67;100684.19;5072223;28;20491;-66
2023/08/25 07:48:50;;;;;;;11.93;9.15;;;;;;;20.26;86.13;100685.03;5071690;28;20460;-65
2023/08/25 07:51:16;;;;;;;13.32;9.10;;;;;;;20.24;85.95;100682.53;5069434;28;20024;-65
2023/08/25 07:53:42;;;;;;;11.57;9.35;;;;;;;20.23;85.86;100678.03;5065170;28;20100;-65
2023/08/25 07:56:07;;;;;;;11.75;8.75;;;;;;;20.16;85.29;100674.00;5051642;28;20033;-65
2023/08/25 07:58:33;;;;;;;11.70;8.50;;;;;;;20.08;85.52;100679.28;5051966;28;20488;-65
2023/08/25 08:00:58;;;;;;;10.93;8.20;;;;;;;20.12;85.39;100682.28;5052041;28;20075;-65
2023/08/25 08:03:23;;;;;;;13.23;8.10;;;;;;;20.13;85.83;100681.16;5051714;28;20033;-65
2023/08/25 08:05:49;;;;;;;9.65;8.40;;;;;;;20.14;86.12;100677.16;5052110;28;20032;-65
2023/08/25 08:08:14;;;;;;;9.85;7.82;;;;;;;20.14;85.53;100681.97;5052053;28;20051;-66
2023/08/25 08:10:40;;;;;;;9.57;8.25;;;;;;;20.08;86.01;100696.19;5057795;28;20085;-66
2023/08/25 08:13:06;;;;;;;11.93;8.98;;;;;;;20.12;85.94;100696.38;5071960;28;20020;-66
2023/08/25 08:15:31;;;;;;;11.30;8.85;;;;;;;20.10;85.41;100693.06;5072117;28;20141;-65
2023/08/25 08:17:58;;;;;;;12.82;8.63;;;;;;;20.14;85.63;100687.59;5071594;28;20527;-65
2023/08/25 08:20:24;;;;;;;11.40;9.45;;;;;;;20.15;85.29;100680.81;5071943;28;20024;-65
2023/08/25 08:22:50;;;;;;;10.25;8.88;;;;;;;20.18;85.38;100650.00;5072042;28;20383;-65
2023/08/25 08:25:15;;;;;;;12.93;9.30;;;;;;;20.12;85.84;100656.91;5071095;28;20070;-65
2023/08/25 08:27:41;;;;;;;11.35;9.25;;;;;;;20.11;85.84;100649.63;5057617;28;20458;-65
2023/08/25 08:30:08;;;;;;;10.73;9.27;;;;;;;20.14;85.67;100679.16;5051518;28;20021;-65
2023/08/25 08:32:38;;;;;;;10.65;9.65;;;;;;;20.09;85.98;100655.59;5051677;28;20041;-65
2023/08/25 08:35:07;;;;;;;13.27;10.77;;;;;;;20.11;85.03;100646.81;5064007;28;20042;-66
2023/08/25 08:37:33;;;;;;;12.38;11.18;;;;;;;20.07;85.21;100673.97;5070971;28;20028;-65
2023/08/25 08:39:58;;;;;;;12.85;11.65;;;;;;;20.04;85.77;100699.97;5071684;28;20456;-65
2023/08/25 08:42:24;;;;;;;12.68;11.45;;;;;;;20.05;85.66;100693.19;5068054;28;20044;-65
2023/08/25 08:44:50;;;;;;;12.70;10.50;;;;;;;20.03;85.34;100687.84;5063211;28;20039;-65
2023/08/25 08:47:16;;;;;;;11.85;10.63;;;;;;;20.06;85.30;100689.22;5065656;28;20036;-65
2023/08/25 08:49:43;;;;;;;12.65;11.35;;;;;;;20.03;85.35;100687.03;5061479;28;20106;-65
2023/08/25 08:52:10;;;;;;;12.57;10.65;;;;;;;20.01;85.79;100680.91;5064419;28;20438;-66
2023/08/25 08:54:37;;;;;;;12.48;11.13;;;;;;;20.00;86.04;100699.78;5073762;28;20497;-65
2023/08/25 08:57:04;;;;;;;12.23;10.98;;;;;;;19.99;86.48;100712.19;5074270;28;20031;-65
2023/08/25 08:59:30;;;;;;;12.55;11.35;;;;;;;20.00;86.39;100704.56;5072536;28;20037;-65
2023/08/25 09:01:57;;;;;;;13.73;12.30;;;;;;;19.98;86.24;100698.44;5072278;28;20067;-65
2023/08/25 09:04:23;;;;;;;13.98;12.63;;;;;;;19.97;86.36;100694.78;5074631;28;20024;-65
2023/08/25 09:06:51;;;;;;;16.10;12.60;;;;;;;19.95;86.37;100668.09;5070873;28;20029;-66
2023/08/25 09:09:19;;;;;;;14.45;12.52;;;;;;;20.01;86.62;100664.81;5073364;28;20025;-66
2023/08/25 09:11:45;;;;;;;14.35;12.68;;;;;;;20.00;86.99;100696.13;5071913;28;20468;-66
2023/08/25 09:14:11;;;;;;;13.90;12.57;;;;;;;20.02;86.81;100707.91;5073478;28;20024;-66
2023/08/25 09:16:37;;;;;;;16.65;13.13;;;;;;;20.01;87.25;100704.25;5074131;28;20124;-68
2023/08/25 09:19:03;;;;;;;13.23;12.02;;;;;;;20.07;86.66;100671.16;5074226;28;20115;-68
2023/08/25 09:21:28;;;;;;;14.65;13.07;;;;;;;20.02;87.27;100651.56;5073312;28;20020;-68
2023/08/25 09:24:03;;;;;;;13.88;12.48;;;;;;;20.09;86.92;100633.06;5069866;28;20579;-68
2023/08/25 09:26:38;;;;;;;14.18;12.75;;;;;;;20.10;87.23;100645.16;5071763;28;20016;-68
2023/08/25 09:29:03;;;;;;;13.18;11.77;;;;;;;20.16;86.69;100662.75;5072604;28;20113;-68
2023/08/25 09:31:31;;;;;;;14.60;12.77;;;;;;;20.15;87.66;100690.09;5074045;28;20020;-68
2023/08/25 09:34:02;;;;;;;14.63;13.32;;;;;;;20.18;87.42;100695.09;5073525;28;20479;-66
2023/08/25 09:36:28;;;;;;;14.25;12.95;;;;;;;20.15;87.54;100684.47;5073696;28;20472;-65
2023/08/25 09:38:53;;;;;;;14.80;12.93;;;;;;;20.16;86.75;100680.50;5073546;28;20032;-65
2023/08/25 09:41:27;;;;;;;15.10;13.73;;;;;;;20.13;87.13;100677.50;5068034;28;20098;-65
2023/08/25 09:43:57;;;;;;;14.80;13.25;;;;;;;20.08;87.92;100676.47;5065843;28;20021;-68
2023/08/25 09:46:30;;;;;;;15.13;13.73;;;;;;;20.09;87.44;100666.88;5079205;28;20035;-69
2023/08/25 09:49:36;;;;;;;14.55;13.15;;;;;;;20.20;86.93;100683.50;5073376;28;20602;-67
2023/08/25 09:52:04;;;;;;;15.10;13.73;;;;;;;20.16;87.40;100682.47;5070194;28;20043;-65
2023/08/25 09:54:29;;;;;;;15.38;13.98;;;;;;;20.23;87.61;100678.03;5072056;28;20036;-66
2023/08/25 09:56:55;;;;;;;15.13;13.52;;;;;;;20.27;87.95;100675.41;5070634;28;20021;-65
2023/08/25 09:59:21;;;;;;;14.98;13.40;;;;;;;20.29;88.02;100668.31;5071436;28;20032;-66
2023/08/25 10:01:46;;;;;;;16.48;14.82;;;;;;;20.33;88.40;100668.50;5072740;28;20194;-65
2023/08/25 10:04:13;;;;;;;15.73;13.98;;;;;;;20.37;87.65;100668.69;5074640;28;20673;-66
2023/08/25 10:06:39;;;;;;;16.02;14.63;;;;;;;20.34;88.09;100678.59;5074528;28;20051;-66
2023/08/25 10:09:06;;;;;;;16.05;14.55;;;;;;;20.31;88.07;100674.44;5073589;28;20524;-65
2023/08/25 10:11:43;;;;;;;15.02;13.68;;;;;;;20.37;88.48;100677.13;5074285;28;20029;-65
2023/08/25 10:14:11;;;;;;;16.15;14.75;;;;;;;20.41;88.54;100666.88;5069978;28;20173;-66
2023/08/25 10:16:54;;;;;;;17.75;16.02;;;;;;;20.49;88.61;100677.41;5073265;28;20032;-65
2023/08/25 10:19:26;;;;;;;17.40;15.95;;;;;;;20.43;88.91;100692.75;5074126;28;20021;-65
2023/08/25 10:21:53;;;;;;;16.27;14.68;;;;;;;20.50;88.54;100682.69;5074292;28;20100;-65
2023/08/25 10:24:22;;;;;;;15.50;14.10;;;;;;;20.55;88.77;100670.44;5073445;28;20028;-66
2023/08/25 10:26:49;;;;;;;15.52;14.13;;;;;;;20.61;89.32;100668.31;5073984;28;20028;-65
2023/08/25 10:29:19;;;;;;;15.52;14.05;;;;;;;20.60;88.60;100684.41;5074043;28;20024;-65
2023/08/25 10:31:57;;;;;;;15.52;14.00;;;;;;;20.63;88.96;100689.38;5059830;28;20033;-65
2023/08/25 10:34:42;;;;;;;13.32;12.15;;;;;;;20.66;87.80;100683.09;5053894;28;20029;-65
2023/08/25 10:37:10;;;;;;;14.38;13.07;;;;;;;20.64;87.41;100682.63;5067853;28;20047;-65
2023/08/25 10:39:48;;;;;;;14.88;13.57;;;;;;;20.61;87.22;100688.91;5092330;28;20032;-66
2023/08/25 10:42:27;;;;;;;14.40;13.18;;;;;;;20.57;87.28;100687.88;5070411;28;20033;-65
2023/08/25 10:44:56;;;;;;;13.88;12.55;;;;;;;20.56;87.30;100698.34;5072874;28;20095;-66
2023/08/25 10:47:23;;;;;;;14.88;13.63;;;;;;;20.47;87.71;100696.56;5073382;28;20033;-65
2023/08/25 10:49:55;;;;;;;15.50;14.10;;;;;;;20.46;88.31;100706.19;5073848;28;20095;-65
2023/08/25 10:52:21;;;;;;;14.65;13.27;;;;;;;20.46;88.46;100701.38;5073085;28;20028;-65
2023/08/25 10:54:50;;;;;;;16.27;14.65;;;;;;;20.47;87.98;100690.94;5073374;28;20031;-65
2023/08/25 10:57:21;;;;;;;15.43;13.93;;;;;;;20.49;88.34;100689.50;5066719;28;20392;-65
2023/08/25 10:59:52;;;;;;;17.92;16.13;;;;;;;20.45;88.42;100694.09;5055625;28;20017;-65
2023/08/25 11:02:37;;;;;;;16.58;14.98;;;;;;;20.50;88.09;100685.53;5053326;28;20487;-66
2023/08/25 11:05:33;;;;;;;16.90;15.35;;;;;;;20.48;88.08;100679.34;5052647;28;20021;-65
2023/08/25 11:08:05;;;;;;;16.40;14.80;;;;;;;20.46;88.72;100681.66;5053292;28;20048;-65
2023/08/25 11:10:33;;;;;;;;;;;;;;;20.59;86.83;100679.91;5053603;28;20028;-65